KMGE

Dobbins Air Reserve Base Airport

Marietta, Georgia, USA
METAR KMGE 201156Z 15001KT 10SM BKN033 M01/M07 A3023 RMK AO2A SLP246 T10101068 11008 21028 58003 $
Observed Flight Rules
Jan-20 @ 11:56 UTC (an hour ago) Visual Flight Rules
Wind Visibility Clouds
150° at 1 knots 10 miles
  • Broken at 3,300' AGL
Temperatures Readings
Current -1°C / 30°F
Dewpoint -7°C / 19°F
Humidity 64%
Altimeter 30.23" Hg
Pressure 1024.6 hPa
Elevation 326
METAR KMGE 201156Z 15001KT 10SM BKN033 M01/M07 A3023 RMK AO2A SLP246 T10101068 11008 21028 58003 $
Observed Flight Rules
Jan-20 @ 11:56 UTC
(an hour ago)
VFR
Wind Visibility
150° at 1 knots 10 miles
Clouds
  • Broken at 3,300' AGL
Temperature Dewpoint
-1°C / 30°F -7°C / 19°F
Humidity Altimeter Pressure
64% 30.23" Hg 1024.6 hPa